Time;durP1;ratioP1;P1;durP2;ratioP2;P2;SDS_P1;SDS_P2;PMS_P1;PMS_P2;Temp;Humidity;BMP_temperature;BMP_pressure;BME280_temperature;BME280_humidity;BME280_pressure;Samples;Min_cycle;Max_cycle;Signal;HPM_P1;HPM_P2
2023/05/07 00:00:40;;;;;;;14.40;8.30;;;;;;;10.61;100.00;100681.79;185872;1235;44096;-84
2023/05/07 00:04:57;;;;;;;14.90;9.60;;;;;;;10.66;100.00;100681.64;185936;1235;44038;-84
2023/05/07 00:09:00;;;;;;;11.70;8.80;;;;;;;10.70;100.00;100683.07;185750;1235;43819;-84
2023/05/07 00:13:02;;;;;;;11.50;9.50;;;;;;;10.75;100.00;100678.46;185725;1235;58494;-85
2023/05/07 00:17:04;;;;;;;14.40;9.80;;;;;;;10.82;100.00;100681.48;185862;1235;43948;-85
2023/05/07 00:21:06;;;;;;;9.90;8.30;;;;;;;10.88;100.00;100679.45;185744;1235;44087;-85
2023/05/07 00:25:08;;;;;;;19.00;8.70;;;;;;;10.91;100.00;100682.21;186029;1235;43977;-85
2023/05/07 00:29:10;;;;;;;12.30;8.30;;;;;;;10.93;100.00;100681.33;185824;1235;43652;-86
2023/05/07 00:33:12;;;;;;;9.50;8.50;;;;;;;10.91;100.00;100688.60;185954;1236;57759;-87
2023/05/07 00:37:14;;;;;;;28.40;9.30;;;;;;;10.86;100.00;100687.17;185807;1235;43787;-86
2023/05/07 00:41:16;;;;;;;13.10;8.10;;;;;;;10.78;100.00;100690.15;185969;1235;43698;-87
2023/05/07 00:45:18;;;;;;;12.80;9.60;;;;;;;10.75;100.00;100690.38;185674;1235;44126;-87
2023/05/07 00:49:20;;;;;;;9.70;7.90;;;;;;;10.72;100.00;100690.02;185830;1235;43911;-86
2023/05/07 00:53:22;;;;;;;8.30;7.30;;;;;;;10.66;100.00;100697.91;185818;1236;58016;-87
2023/05/07 00:57:25;;;;;;;10.30;7.80;;;;;;;10.63;100.00;100688.59;185729;1235;43620;-86
2023/05/07 01:01:27;;;;;;;9.10;6.80;;;;;;;10.59;100.00;100694.71;185837;1236;43710;-87
2023/05/07 01:05:30;;;;;;;12.70;8.50;;;;;;;10.52;100.00;100700.70;185711;1237;43722;-88
2023/05/07 01:09:32;;;;;;;11.90;9.80;;;;;;;10.49;100.00;100693.16;185965;1235;44080;-88
2023/05/07 01:13:39;;;;;;;12.30;8.00;;;;;;;10.51;100.00;100695.31;185825;1235;58365;-87
2023/05/07 01:17:41;;;;;;;;;;;;;;;10.48;100.00;100700.14;185733;1235;43873;-89
2023/05/07 01:21:48;;;;;;;16.00;8.80;;;;;;;10.47;100.00;100695.86;185882;1235;43754;-87
2023/05/07 01:25:53;;;;;;;;;;;;;;;10.40;100.00;100687.91;185733;1235;44017;-87
2023/05/07 01:29:57;;;;;;;8.90;7.80;;;;;;;10.40;100.00;100693.29;185906;1235;43767;-87
2023/05/07 01:34:01;;;;;;;12.30;8.40;;;;;;;10.40;100.00;100702.13;185809;1235;58829;-87
2023/05/07 01:38:05;;;;;;;12.30;8.60;;;;;;;10.37;100.00;100704.08;185927;1235;43681;-87
2023/05/07 01:42:07;;;;;;;11.50;9.20;;;;;;;10.37;100.00;100705.73;185849;1235;44180;-87
2023/05/07 01:46:10;;;;;;;8.90;7.40;;;;;;;10.34;100.00;100705.79;185851;1238;43867;-86
2023/05/07 01:50:12;;;;;;;10.50;9.40;;;;;;;10.33;100.00;100706.20;185872;1235;43752;-87
2023/05/07 01:54:15;;;;;;;7.00;6.30;;;;;;;10.29;100.00;100704.86;185903;1235;58214;-87
2023/05/07 01:58:16;;;;;;;9.10;7.60;;;;;;;10.32;100.00;100710.69;185690;1237;43609;-86
2023/05/07 02:02:18;;;;;;;12.10;9.10;;;;;;;10.30;100.00;100709.92;185847;1235;43915;-87
2023/05/07 02:06:20;;;;;;;9.70;8.00;;;;;;;10.30;100.00;100713.16;185950;1235;43778;-86
2023/05/07 02:10:22;;;;;;;9.90;8.50;;;;;;;10.31;100.00;100711.85;185714;1235;43692;-86
2023/05/07 02:14:25;;;;;;;8.40;7.50;;;;;;;10.33;100.00;100714.89;185798;1235;57019;-86
2023/05/07 02:18:27;;;;;;;8.80;7.30;;;;;;;10.33;100.00;100713.63;185780;1235;44031;-86
2023/05/07 02:22:30;;;;;;;12.60;9.10;;;;;;;10.32;100.00;100714.81;185908;1235;43709;-86
2023/05/07 02:26:31;;;;;;;9.90;8.80;;;;;;;10.31;100.00;100717.70;185880;1235;43896;-86
2023/05/07 02:30:33;;;;;;;10.50;8.90;;;;;;;10.32;100.00;100719.94;186041;1235;43668;-86
2023/05/07 02:34:35;;;;;;;13.10;9.30;;;;;;;10.30;100.00;100722.75;185956;1236;57362;-86
2023/05/07 02:38:38;;;;;;;13.60;10.20;;;;;;;10.29;100.00;100726.33;185861;1236;43645;-86
2023/05/07 02:42:41;;;;;;;16.50;10.80;;;;;;;10.30;100.00;100725.75;185906;1235;43731;-87
2023/05/07 02:46:42;;;;;;;18.10;12.50;;;;;;;10.30;100.00;100731.23;186087;1235;43853;-86
2023/05/07 02:50:44;;;;;;;15.00;10.70;;;;;;;10.27;100.00;100731.48;185769;1235;43870;-87
2023/05/07 02:54:46;;;;;;;16.00;11.00;;;;;;;10.22;100.00;100728.98;185735;1235;59338;-86
2023/05/07 02:58:48;;;;;;;13.90;10.70;;;;;;;10.21;100.00;100728.02;185749;1235;44037;-87
2023/05/07 03:02:49;;;;;;;16.10;11.40;;;;;;;10.18;100.00;100731.56;185921;1235;43875;-86
2023/05/07 03:06:51;;;;;;;12.70;10.50;;;;;;;10.12;100.00;100733.38;185824;1238;44019;-87
2023/05/07 03:10:53;;;;;;;16.50;11.40;;;;;;;10.09;100.00;100736.99;185887;1235;43983;-87
2023/05/07 03:14:55;;;;;;;15.80;10.90;;;;;;;10.06;100.00;100736.67;185850;1235;60045;-87
2023/05/07 03:18:56;;;;;;;11.90;10.50;;;;;;;10.07;100.00;100738.24;185794;1235;43729;-86
2023/05/07 03:22:58;;;;;;;13.80;10.70;;;;;;;10.06;100.00;100741.85;185918;1235;43961;-86
2023/05/07 03:27:01;;;;;;;12.60;11.00;;;;;;;10.05;100.00;100748.12;185894;1235;43805;-86
2023/05/07 03:31:02;;;;;;;14.70;10.90;;;;;;;10.06;100.00;100751.23;185748;1235;44111;-87
2023/05/07 03:35:05;;;;;;;15.90;12.10;;;;;;;10.06;100.00;100756.89;185686;1239;59161;-86
2023/05/07 03:39:07;;;;;;;13.10;10.80;;;;;;;10.10;100.00;100762.26;185864;1235;43968;-86
2023/05/07 03:43:09;;;;;;;15.20;10.50;;;;;;;10.10;100.00;100770.55;185901;1235;43860;-86
2023/05/07 03:47:13;;;;;;;15.10;12.30;;;;;;;10.13;100.00;100768.93;185839;1235;44104;-86
2023/05/07 03:51:15;;;;;;;13.50;11.40;;;;;;;10.15;100.00;100773.58;185822;1235;44010;-85
2023/05/07 03:55:17;;;;;;;18.90;11.80;;;;;;;10.19;100.00;100782.73;185788;1235;59220;-86
2023/05/07 03:59:20;;;;;;;13.40;12.00;;;;;;;10.21;100.00;100784.02;185763;1235;44076;-86
2023/05/07 04:03:22;;;;;;;16.00;13.20;;;;;;;10.23;100.00;100790.07;185875;1235;43637;-86
2023/05/07 04:07:25;;;;;;;19.20;13.20;;;;;;;10.23;100.00;100791.31;185810;1235;44093;-87
2023/05/07 04:11:27;;;;;;;14.00;12.60;;;;;;;10.23;100.00;100796.81;186094;1235;43614;-87
2023/05/07 04:15:29;;;;;;;18.70;12.30;;;;;;;10.23;100.00;100798.79;185911;1235;58151;-87
2023/05/07 04:19:33;;;;;;;13.00;11.10;;;;;;;10.21;100.00;100809.86;185903;1235;43805;-87
2023/05/07 04:23:35;;;;;;;15.30;11.40;;;;;;;10.18;100.00;100812.38;185746;1236;44052;-88
2023/05/07 04:27:37;;;;;;;19.30;12.60;;;;;;;10.16;100.00;100817.13;185938;1235;44072;-88
2023/05/07 04:31:39;;;;;;;21.10;14.00;;;;;;;10.12;100.00;100820.39;185808;1235;43712;-87
2023/05/07 04:35:41;;;;;;;14.70;12.00;;;;;;;10.09;100.00;100818.52;185819;1235;58178;-87
2023/05/07 04:39:43;;;;;;;14.10;12.60;;;;;;;10.03;100.00;100821.41;185943;1235;44230;-87
2023/05/07 04:43:45;;;;;;;13.20;11.80;;;;;;;9.96;100.00;100828.96;185750;1235;43924;-87
2023/05/07 04:47:47;;;;;;;16.00;13.40;;;;;;;9.89;100.00;100833.73;185781;1235;43973;-88
2023/05/07 04:51:49;;;;;;;18.10;14.30;;;;;;;9.83;100.00;100838.55;185977;1235;43788;-88
2023/05/07 04:55:58;;;;;;;18.00;13.30;;;;;;;9.79;100.00;100844.69;185763;1235;58101;-88
2023/05/07 05:00:00;;;;;;;20.00;14.10;;;;;;;9.78;100.00;100847.42;185888;1236;43940;-86
2023/05/07 05:04:01;;;;;;;15.10;12.40;;;;;;;9.77;100.00;100852.07;185889;1235;43986;-87
2023/05/07 05:08:03;;;;;;;13.70;11.80;;;;;;;9.79;100.00;100853.01;185741;1235;43749;-86
2023/05/07 05:12:07;;;;;;;11.70;10.50;;;;;;;9.79;100.00;100854.27;185988;1235;43656;-86
2023/05/07 05:16:08;;;;;;;12.00;10.80;;;;;;;9.78;100.00;100859.27;185737;1235;58152;-87
2023/05/07 05:20:11;;;;;;;12.30;10.80;;;;;;;9.79;100.00;100856.40;185834;1235;44073;-86
2023/05/07 05:24:13;;;;;;;10.70;9.10;;;;;;;9.80;100.00;100856.70;185744;1235;43995;-87
2023/05/07 05:28:15;;;;;;;10.60;8.70;;;;;;;9.83;100.00;100859.63;185801;1236;43756;-86
2023/05/07 05:32:17;;;;;;;13.30;10.70;;;;;;;9.93;100.00;100865.33;185871;1235;44066;-87
2023/05/07 05:36:18;;;;;;;11.90;7.90;;;;;;;10.00;100.00;100871.09;185752;1235;59411;-86
2023/05/07 05:40:20;;;;;;;8.60;7.80;;;;;;;10.06;100.00;100869.02;185870;1235;44475;-86
2023/05/07 05:44:22;;;;;;;7.20;6.30;;;;;;;10.09;100.00;100875.91;185743;1235;43677;-86
2023/05/07 05:48:23;;;;;;;8.00;7.20;;;;;;;10.10;100.00;100880.14;185920;1235;43664;-86
2023/05/07 05:52:25;;;;;;;6.30;5.50;;;;;;;10.13;100.00;100885.39;185729;1235;43869;-87
2023/05/07 05:56:27;;;;;;;7.10;6.20;;;;;;;10.19;100.00;100888.86;185740;1236;57097;-87
2023/05/07 06:00:29;;;;;;;6.80;6.10;;;;;;;10.35;100.00;100890.82;185841;1239;43740;-85
2023/05/07 06:04:31;;;;;;;7.80;7.00;;;;;;;10.45;100.00;100891.90;185788;1239;43746;-86
2023/05/07 06:08:33;;;;;;;10.30;6.90;;;;;;;10.53;100.00;100894.70;185781;1236;43755;-86
2023/05/07 06:12:35;;;;;;;7.00;6.30;;;;;;;10.63;100.00;100895.19;185773;1235;43989;-87
2023/05/07 06:16:37;;;;;;;8.80;7.60;;;;;;;10.74;100.00;100897.05;186049;1235;57345;-86
2023/05/07 06:20:39;;;;;;;6.50;5.30;;;;;;;10.85;100.00;100902.30;185746;1239;44022;-86
2023/05/07 06:24:41;;;;;;;6.80;5.80;;;;;;;10.92;99.93;100903.42;186116;1235;43750;-86
2023/05/07 06:28:43;;;;;;;6.30;5.40;;;;;;;11.00;99.83;100906.59;185849;1235;44118;-85
2023/05/07 06:32:44;;;;;;;5.50;4.90;;;;;;;11.04;99.23;100909.30;185933;1235;43660;-86
2023/05/07 06:36:46;;;;;;;5.70;4.30;;;;;;;10.93;97.79;100910.48;185836;1235;59297;-86
2023/05/07 06:40:49;;;;;;;12.50;5.20;;;;;;;10.87;97.72;100915.30;185875;1235;43930;-86
2023/05/07 06:44:51;;;;;;;4.50;4.10;;;;;;;10.80;97.01;100915.98;185882;1235;43697;-84
2023/05/07 06:48:52;;;;;;;6.40;3.90;;;;;;;10.75;96.10;100921.86;185792;1235;43939;-84
2023/05/07 06:52:54;;;;;;;4.20;3.80;;;;;;;10.68;96.00;100925.91;186030;1235;43913;-84
2023/05/07 06:56:55;;;;;;;3.50;3.20;;;;;;;10.58;95.43;100931.40;185839;1235;59650;-84
2023/05/07 07:00:56;;;;;;;4.20;3.30;;;;;;;10.54;96.01;100939.13;185738;1235;43808;-84
2023/05/07 07:04:58;;;;;;;4.60;3.70;;;;;;;10.52;96.73;100947.61;185865;1235;43817;-84
2023/05/07 07:09:00;;;;;;;5.50;3.70;;;;;;;10.56;96.74;100952.84;185629;1235;43810;-84
2023/05/07 07:13:01;;;;;;;8.30;4.50;;;;;;;10.48;96.07;100951.81;185840;1235;43743;-83
2023/05/07 07:17:05;;;;;;;3.80;3.50;;;;;;;10.41;96.60;100957.01;185829;1235;58293;-84
2023/05/07 07:21:06;;;;;;;4.40;4.00;;;;;;;10.39;96.74;100966.22;185750;1236;43761;-86
2023/05/07 07:25:08;;;;;;;3.30;3.10;;;;;;;10.41;96.73;100972.09;185969;1235;44005;-84
2023/05/07 07:29:12;;;;;;;4.40;4.00;;;;;;;10.36;96.26;100970.13;185693;1235;43947;-84
2023/05/07 07:33:14;;;;;;;4.70;3.80;;;;;;;10.41;97.16;100970.33;185884;1236;43958;-84
2023/05/07 07:37:16;;;;;;;5.70;4.60;;;;;;;10.53;96.73;100970.95;185823;1235;57875;-85
2023/05/07 07:41:17;;;;;;;3.90;3.40;;;;;;;10.68;96.69;100968.98;185739;1235;43754;-88
2023/05/07 07:45:19;;;;;;;3.30;2.90;;;;;;;10.83;95.33;100973.27;185780;1235;44019;-85
2023/05/07 07:49:21;;;;;;;5.50;3.80;;;;;;;10.89;93.31;100979.02;185751;1239;43785;-87
2023/05/07 07:53:23;;;;;;;13.50;7.30;;;;;;;10.98;94.28;100984.23;185967;1238;43727;-87
2023/05/07 07:57:25;;;;;;;8.30;5.20;;;;;;;11.04;94.55;100982.56;185773;1239;59716;-88
2023/05/07 08:01:26;;;;;;;7.00;6.40;;;;;;;11.13;93.40;100984.93;185542;1236;43813;-84
2023/05/07 08:05:29;;;;;;;8.80;7.90;;;;;;;11.37;93.59;100991.52;185989;1235;43942;-85
2023/05/07 08:09:30;;;;;;;7.20;6.20;;;;;;;11.61;92.30;100993.88;185902;1236;44007;-86
2023/05/07 08:13:32;;;;;;;17.20;12.50;;;;;;;11.92;91.75;100985.33;185595;1236;43793;-86
2023/05/07 08:17:34;;;;;;;18.20;15.40;;;;;;;12.46;89.34;100982.65;185668;1236;59435;-85
2023/05/07 08:21:39;;;;;;;11.70;9.80;;;;;;;12.76;84.10;100988.30;185965;1238;43908;-85
2023/05/07 08:25:42;;;;;;;8.10;7.30;;;;;;;12.81;82.17;100990.36;185750;1235;43882;-85
2023/05/07 08:29:47;;;;;;;15.10;11.70;;;;;;;12.89;81.63;100992.27;185754;1235;43998;-84
2023/05/07 08:33:50;;;;;;;9.40;7.60;;;;;;;12.98;81.60;100995.29;185884;1235;43964;-84
2023/05/07 08:37:53;;;;;;;13.70;8.90;;;;;;;12.98;81.00;100998.13;185787;1236;59319;-86
2023/05/07 08:41:57;;;;;;;5.70;4.80;;;;;;;12.92;81.56;101003.74;186410;1239;43707;-86
2023/05/07 08:46:02;;;;;;;8.80;6.80;;;;;;;12.85;81.68;101004.99;185881;1236;44137;-85
2023/05/07 08:50:05;;;;;;;4.60;4.20;;;;;;;12.72;82.13;101004.98;185904;1235;44209;-86
2023/05/07 08:54:07;;;;;;;5.80;4.70;;;;;;;12.66;83.06;101013.61;186347;1236;44057;-85
2023/05/07 08:58:08;;;;;;;5.70;4.80;;;;;;;12.63;81.28;101010.86;185862;1235;59829;-85
2023/05/07 09:02:11;;;;;;;4.70;4.10;;;;;;;12.64;83.71;101010.76;186049;1235;43921;-86
2023/05/07 09:06:13;;;;;;;3.80;3.50;;;;;;;12.66;83.14;101010.61;185730;1236;43968;-85
2023/05/07 09:10:15;;;;;;;5.30;3.40;;;;;;;12.65;83.65;101008.91;185745;1236;43747;-85
2023/05/07 09:14:16;;;;;;;6.20;4.90;;;;;;;12.50;82.94;101016.67;185831;1236;44004;-85
2023/05/07 09:18:18;;;;;;;4.30;3.90;;;;;;;12.35;83.62;101018.35;186092;1235;59503;-86
2023/05/07 09:22:20;;;;;;;6.80;5.60;;;;;;;12.18;85.57;101021.09;185781;1235;43757;-85
2023/05/07 09:26:23;;;;;;;10.90;8.50;;;;;;;12.07;86.95;101022.79;185788;1236;43898;-85
2023/05/07 09:30:32;;;;;;;14.50;7.30;;;;;;;11.94;88.19;101024.62;185865;1235;44062;-86
2023/05/07 09:34:36;;;;;;;7.00;6.40;;;;;;;11.91;88.39;101033.77;185906;1235;43630;-86
2023/05/07 09:38:38;;;;;;;9.10;6.30;;;;;;;11.89;87.02;101038.35;186060;1235;57808;-85
2023/05/07 09:42:39;;;;;;;8.00;7.00;;;;;;;11.96;87.56;101039.27;185699;1235;43927;-85
2023/05/07 09:46:44;;;;;;;8.20;7.40;;;;;;;11.91;86.95;101041.04;186090;1236;43698;-86
2023/05/07 09:50:51;;;;;;;6.80;6.10;;;;;;;11.74;87.43;101052.83;185909;1235;43890;-86
2023/05/07 09:54:55;;;;;;;7.90;6.70;;;;;;;11.62;88.36;101061.87;186044;1236;43700;-86
2023/05/07 09:59:00;;;;;;;8.70;7.20;;;;;;;11.63;88.80;101062.88;186070;1236;59799;-85
2023/05/07 10:03:04;;;;;;;10.10;7.60;;;;;;;11.68;89.62;101063.21;185711;1236;43936;-86
2023/05/07 10:07:07;;;;;;;10.30;8.40;;;;;;;11.72;89.29;101062.52;185844;1239;43841;-86
2023/05/07 10:11:09;;;;;;;8.50;7.80;;;;;;;11.58;88.34;101066.01;185848;1236;43871;-85
2023/05/07 10:15:12;;;;;;;9.10;8.20;;;;;;;11.48;88.82;101069.59;185765;1235;43768;-88
2023/05/07 10:19:16;;;;;;;9.50;8.60;;;;;;;11.51;89.79;101069.94;185916;1236;58151;-83
2023/05/07 10:23:23;;;;;;;9.20;7.40;;;;;;;11.54;89.24;101071.81;185693;1235;43739;-85
2023/05/07 10:27:26;;;;;;;11.40;8.70;;;;;;;11.49;88.78;101073.29;185685;1239;43821;-85
2023/05/07 10:31:36;;;;;;;8.70;7.80;;;;;;;11.41;88.63;101078.84;185641;1236;43630;-85
2023/05/07 10:35:41;;;;;;;11.90;8.40;;;;;;;11.32;90.23;101080.73;185999;1236;43814;-84
2023/05/07 10:39:43;;;;;;;14.40;9.30;;;;;;;11.29;91.70;101082.14;185801;1236;59318;-84
2023/05/07 10:43:45;;;;;;;8.10;7.30;;;;;;;11.42;91.23;101077.64;185635;1236;43696;-85
2023/05/07 10:48:10;;;;;;;9.50;7.90;;;;;;;11.65;89.40;101071.03;185588;1237;44119;-84
2023/05/07 10:52:30;;;;;;;7.10;5.90;;;;;;;11.76;86.91;101066.16;186127;1236;43711;-84
2023/05/07 10:56:31;;;;;;;6.00;5.50;;;;;;;11.72;84.98;101064.80;185877;1239;43876;-85
2023/05/07 11:00:33;;;;;;;7.50;6.60;;;;;;;11.65;84.72;101072.67;185946;1235;57978;-84
2023/05/07 11:04:38;;;;;;;7.60;6.90;;;;;;;11.63;85.63;101084.86;185745;1239;44293;-85
2023/05/07 11:08:52;;;;;;;6.80;6.20;;;;;;;11.60;86.63;101086.70;185689;1235;43863;-85
2023/05/07 11:12:55;;;;;;;6.60;6.00;;;;;;;11.61;87.30;101090.54;185789;1236;43816;-84
2023/05/07 11:17:03;;;;;;;9.60;6.10;;;;;;;11.66;87.65;101094.73;185640;1237;43985;-87
2023/05/07 11:21:05;;;;;;;22.50;11.90;;;;;;;11.67;85.16;101097.52;185702;1236;59337;-87
2023/05/07 11:25:07;;;;;;;15.00;7.70;;;;;;;11.70;85.63;101105.13;185580;1236;44115;-87
2023/05/07 11:29:22;;;;;;;8.50;6.10;;;;;;;11.71;85.15;101109.17;185684;1237;43841;-87
2023/05/07 11:33:25;;;;;;;8.70;6.60;;;;;;;11.77;84.01;101110.98;185606;1236;43746;-84
2023/05/07 11:37:29;;;;;;;5.40;4.90;;;;;;;11.89;83.52;101114.42;185706;1237;43899;-87
2023/05/07 11:41:36;;;;;;;5.20;4.60;;;;;;;11.96;81.65;101111.59;185620;1235;59272;-86
2023/05/07 11:45:38;;;;;;;4.80;3.90;;;;;;;12.02;81.22;101105.26;185730;1235;202395;-86
2023/05/07 11:49:41;;;;;;;5.40;4.30;;;;;;;12.11;81.13;101107.65;185916;1238;43767;-86
2023/05/07 11:53:45;;;;;;;5.00;4.60;;;;;;;12.09;80.36;101105.47;185756;1236;44020;-85
2023/05/07 11:57:47;;;;;;;5.60;4.90;;;;;;;12.04;80.89;101106.73;185603;1237;44019;-86
2023/05/07 12:01:49;;;;;;;5.40;3.60;;;;;;;12.05;81.46;101107.44;185878;1236;59869;-87
2023/05/07 12:05:51;;;;;;;5.80;4.70;;;;;;;12.08;81.60;101114.23;185926;1237;43865;-86
2023/05/07 12:09:53;;;;;;;5.10;4.60;;;;;;;12.04;78.93;101114.05;185732;1237;44018;-86
2023/05/07 12:13:55;;;;;;;4.00;3.60;;;;;;;12.13;80.20;101116.37;185662;1236;43884;-86
2023/05/07 12:18:01;;;;;;;3.70;3.40;;;;;;;12.28;80.26;101118.45;185624;1239;43776;-86
2023/05/07 12:22:03;;;;;;;6.80;4.20;;;;;;;12.46;79.01;101122.98;185903;1235;60166;-86
2023/05/07 12:26:05;;;;;;;4.40;3.80;;;;;;;12.46;78.53;101118.52;185691;1235;43779;-85
2023/05/07 12:30:10;;;;;;;6.60;5.80;;;;;;;12.34;78.30;101119.29;185742;1235;43902;-87
2023/05/07 12:34:12;;;;;;;7.30;4.80;;;;;;;12.23;80.02;101125.25;185712;1238;43907;-85
2023/05/07 12:38:16;;;;;;;6.20;4.10;;;;;;;12.25;80.43;101125.42;186001;1236;43997;-85
2023/05/07 12:42:25;;;;;;;4.80;4.20;;;;;;;12.24;79.88;101125.31;185601;1235;59485;-86
2023/05/07 12:46:28;;;;;;;8.40;5.60;;;;;;;12.28;80.41;101125.98;185714;1238;43727;-86
2023/05/07 12:50:33;;;;;;;5.00;4.50;;;;;;;12.39;80.16;101125.11;185595;1235;43763;-85
2023/05/07 12:54:37;;;;;;;7.30;5.00;;;;;;;12.59;80.31;101126.08;185705;1240;43866;-87
2023/05/07 12:58:39;;;;;;;6.70;4.60;;;;;;;12.71;77.65;101121.23;185584;1237;43708;-87
2023/05/07 13:02:46;;;;;;;5.70;5.20;;;;;;;12.71;78.07;101125.36;185872;1235;59504;-87
2023/05/07 13:06:48;;;;;;;10.70;5.40;;;;;;;12.72;78.08;101132.94;185621;1235;44087;-87
2023/05/07 13:10:50;;;;;;;6.00;4.10;;;;;;;12.76;80.38;101137.48;185756;1236;43993;-85
2023/05/07 13:14:51;;;;;;;5.00;4.10;;;;;;;12.76;79.81;101145.46;185760;1239;43946;-84
2023/05/07 13:18:53;;;;;;;5.60;4.60;;;;;;;12.84;80.12;101144.14;185749;1235;43717;-87
2023/05/07 13:22:55;;;;;;;5.90;4.60;;;;;;;12.81;78.56;101142.45;185726;1235;58239;-87
2023/05/07 13:26:57;;;;;;;4.70;3.90;;;;;;;12.68;78.06;101140.00;185722;1236;44117;-86
2023/05/07 13:30:59;;;;;;;5.40;4.80;;;;;;;12.60;79.14;101143.10;185556;1235;44000;-85
2023/05/07 13:35:01;;;;;;;4.60;4.30;;;;;;;12.54;79.24;101140.34;185612;1235;43829;-86
2023/05/07 13:39:03;;;;;;;6.00;4.80;;;;;;;12.54;79.05;101137.88;185611;1236;43816;-87
2023/05/07 13:43:06;;;;;;;6.50;4.70;;;;;;;12.61;79.02;101132.33;185676;1235;59337;-84
2023/05/07 13:47:08;;;;;;;3.90;3.60;;;;;;;12.67;77.16;101135.81;185689;1235;44115;-85
2023/05/07 13:51:10;;;;;;;3.00;2.70;;;;;;;12.75;76.42;101137.68;185856;1235;44060;-84
2023/05/07 13:55:12;;;;;;;5.60;5.10;;;;;;;12.71;76.49;101140.30;185969;1240;43802;-87
2023/05/07 13:59:15;;;;;;;4.10;3.70;;;;;;;12.71;78.61;101138.55;185657;1235;43747;-86
2023/05/07 14:03:19;;;;;;;6.10;4.20;;;;;;;12.62;78.73;101139.58;185824;1235;59286;-86
2023/05/07 14:07:21;;;;;;;5.10;4.10;;;;;;;12.55;81.32;101143.16;185772;1235;44140;-86
2023/05/07 14:11:23;;;;;;;4.90;4.40;;;;;;;12.39;80.97;101138.08;186025;1239;43781;-85
2023/05/07 14:15:28;;;;;;;4.60;3.90;;;;;;;12.34;82.37;101141.00;185765;1235;43781;-87
2023/05/07 14:19:31;;;;;;;4.50;4.00;;;;;;;12.29;81.66;101139.05;185904;1239;43994;-88
2023/05/07 14:23:41;;;;;;;8.30;5.60;;;;;;;12.26;81.34;101144.23;185745;1235;59270;-89
2023/05/07 14:27:43;;;;;;;5.70;4.90;;;;;;;12.33;81.64;101153.84;185829;1235;43879;-86
2023/05/07 14:31:45;;;;;;;5.30;4.20;;;;;;;12.36;80.44;101156.45;185584;1235;44027;-87
2023/05/07 14:35:49;;;;;;;4.90;4.50;;;;;;;12.40;80.21;101158.14;185536;1235;44087;-87
2023/05/07 14:39:51;;;;;;;5.40;4.90;;;;;;;12.39;80.11;101165.48;185552;1235;43852;-88
2023/05/07 14:43:52;;;;;;;6.10;5.40;;;;;;;12.35;80.51;101164.00;185637;1238;58661;-87
2023/05/07 14:47:55;;;;;;;6.70;5.70;;;;;;;12.28;80.46;101169.53;185483;1238;43886;-87
2023/05/07 14:51:59;;;;;;;7.50;6.60;;;;;;;12.14;78.87;101174.12;185620;1235;44145;-88
2023/05/07 14:56:01;;;;;;;8.10;4.90;;;;;;;12.06;80.25;101175.22;185585;1235;43835;-89
2023/05/07 15:00:04;;;;;;;6.90;6.20;;;;;;;12.04;81.35;101174.66;185702;1235;43656;-89
2023/05/07 15:04:06;;;;;;;7.80;6.40;;;;;;;12.01;81.91;101177.55;185614;1235;57979;-89
2023/05/07 15:08:08;;;;;;;7.80;6.90;;;;;;;11.84;81.36;101181.41;185503;1236;44001;-89
2023/05/07 15:12:14;;;;;;;6.50;5.20;;;;;;;11.68;80.25;101184.16;185920;1234;43818;-89
2023/05/07 15:16:17;;;;;;;5.00;4.60;;;;;;;11.60;79.80;101190.75;186243;1234;44186;-89
2023/05/07 15:20:21;;;;;;;13.80;5.50;;;;;;;11.57;80.09;101189.75;186502;1235;43639;-90
2023/05/07 15:25:12;;;;;;;7.40;5.80;;;;;;;11.59;80.87;101187.85;186370;1235;86018;-64
2023/05/07 15:29:14;;;;;;;6.30;5.80;;;;;;;11.59;80.69;101184.08;186346;1236;43882;-64
2023/05/07 15:33:15;;;;;;;7.80;4.80;;;;;;;11.60;81.08;101184.54;186432;1239;43105;-64
2023/05/07 15:37:17;;;;;;;5.90;5.10;;;;;;;11.56;81.06;101180.05;186335;1236;43734;-64
2023/05/07 15:41:18;;;;;;;6.30;5.40;;;;;;;11.51;80.94;101185.52;186414;1236;43081;-63
2023/05/07 15:45:27;;;;;;;6.10;5.00;;;;;;;11.49;81.61;101183.55;186353;1236;58271;-63
2023/05/07 15:49:28;;;;;;;7.80;5.70;;;;;;;11.45;81.58;101178.73;186333;1236;43711;-62
2023/05/07 15:53:30;;;;;;;11.60;7.10;;;;;;;11.48;82.84;101182.91;186441;1236;43826;-63
2023/05/07 15:57:32;;;;;;;8.60;7.40;;;;;;;11.55;83.16;101185.78;186371;1236;43565;-63
2023/05/07 16:01:33;;;;;;;8.40;7.50;;;;;;;11.59;82.78;101183.53;186457;1236;43621;-63
2023/05/07 16:05:35;;;;;;;5.90;5.30;;;;;;;11.62;83.23;101183.37;186429;1236;57947;-63
2023/05/07 16:09:37;;;;;;;7.60;5.70;;;;;;;11.63;82.81;101183.14;186335;1236;43609;-63
2023/05/07 16:14:28;;;;;;;6.60;5.70;;;;;;;11.64;82.87;101181.05;186469;1236;43934;-63
2023/05/07 16:18:29;;;;;;;9.60;4.90;;;;;;;11.66;82.44;101182.52;186501;1236;43659;-64
2023/05/07 16:22:31;;;;;;;8.30;5.80;;;;;;;11.63;81.60;101179.89;186335;1237;43569;-63
2023/05/07 16:26:33;;;;;;;6.10;4.70;;;;;;;11.65;81.43;101178.49;186439;1240;58465;-64
2023/05/07 16:30:35;;;;;;;6.80;4.50;;;;;;;11.68;81.16;101183.83;186357;1236;43117;-63
2023/05/07 16:34:36;;;;;;;4.80;4.40;;;;;;;11.64;80.13;101180.36;186359;1236;43002;-64
2023/05/07 16:38:37;;;;;;;5.30;4.50;;;;;;;11.62;80.83;101181.27;186460;1236;43457;-63
2023/05/07 16:42:39;;;;;;;9.80;5.40;;;;;;;11.62;80.57;101181.96;186429;1236;43749;-63
2023/05/07 16:46:40;;;;;;;8.70;4.50;;;;;;;11.65;81.09;101187.05;186395;1236;58024;-62
2023/05/07 16:50:43;;;;;;;6.40;5.30;;;;;;;11.64;80.89;101192.30;186446;1236;42996;-62
2023/05/07 16:54:44;;;;;;;6.10;5.50;;;;;;;11.63;81.48;101190.94;186397;1236;43742;-63
2023/05/07 16:58:46;;;;;;;6.80;6.20;;;;;;;11.62;82.07;101181.58;186416;1236;43607;-65
2023/05/07 17:02:47;;;;;;;8.80;5.20;;;;;;;11.57;81.45;101184.75;186385;1236;43385;-64
2023/05/07 17:06:49;;;;;;;6.40;5.50;;;;;;;11.57;81.45;101184.95;186421;1236;57911;-64
2023/05/07 17:10:51;;;;;;;7.50;5.70;;;;;;;11.52;80.89;101187.79;186472;1237;42986;-64
2023/05/07 17:14:58;;;;;;;8.20;6.20;;;;;;;11.47;81.40;101184.91;186357;1237;43782;-65
2023/05/07 17:18:59;;;;;;;5.90;5.30;;;;;;;11.40;81.54;101188.43;186377;1238;43290;-64
2023/05/07 17:23:01;;;;;;;5.70;5.20;;;;;;;11.38;82.27;101198.73;186321;1237;43154;-63
2023/05/07 17:27:02;;;;;;;6.50;4.20;;;;;;;11.35;82.42;101195.16;186391;1236;43742;-63
2023/05/07 17:31:04;;;;;;;5.90;5.20;;;;;;;11.25;81.69;101196.56;186352;1236;43757;-63
2023/05/07 17:35:06;;;;;;;5.80;5.30;;;;;;;11.22;82.13;101203.88;186422;1236;43645;-64
2023/05/07 17:39:10;;;;;;;5.90;4.90;;;;;;;11.17;81.86;101201.58;186354;1240;43419;-63
2023/05/07 17:43:11;;;;;;;5.70;5.20;;;;;;;11.09;82.31;101207.11;186377;1238;43021;-64
2023/05/07 17:47:13;;;;;;;7.40;5.70;;;;;;;11.02;81.26;101212.04;186415;1236;58392;-63
2023/05/07 17:51:14;;;;;;;6.70;5.30;;;;;;;11.03;82.05;101212.52;186365;1236;44095;-64
2023/05/07 17:55:15;;;;;;;5.20;4.50;;;;;;;11.03;82.15;101215.70;186375;1237;43638;-64
2023/05/07 17:59:17;;;;;;;5.80;4.30;;;;;;;10.98;80.51;101217.43;186408;1236;43028;-64
2023/05/07 18:03:19;;;;;;;5.70;5.20;;;;;;;10.99;80.21;101215.41;186425;1238;43413;-64
2023/05/07 18:07:21;;;;;;;7.40;4.90;;;;;;;10.98;79.85;101228.45;186328;1236;59102;-62
2023/05/07 18:11:23;;;;;;;5.10;4.60;;;;;;;10.97;80.28;101231.02;186400;1236;43090;-63
2023/05/07 18:15:24;;;;;;;5.00;4.40;;;;;;;10.94;80.51;101235.83;186287;1237;43123;-64
2023/05/07 18:19:26;;;;;;;8.60;5.60;;;;;;;10.95;80.39;101237.38;186322;1236;43005;-64
2023/05/07 18:23:29;;;;;;;5.90;5.20;;;;;;;10.92;80.39;101239.55;186370;1237;43647;-63
2023/05/07 18:27:30;;;;;;;5.40;4.70;;;;;;;10.92;81.01;101246.80;186309;1236;58280;-63